.
WxDataArchive / Data Records for 2011-05-15
2011-05-14 May 2011 2011-05-16

Data Records for Sunday, 15 May 2011

Time	Temp	Chill	HIndex	Humid	Dewpt	 Wind 	HiWind	WindDir	Rain 	Barom 
-----	----	-----	------	-----	-----	------	------	-------	-----	----- 
00:00	53.3	53.3	53.3	94	51.6	0	0	---	0.01	29.608 
00:05	53.2	53.2	53.2	94	51.5	0	1	338	0.00	29.608 
00:10	53.2	53.2	53.2	94	51.5	0	2	338	0.00	29.608 
00:15	53.2	53.2	53.2	94	51.5	0	2	338	0.01	29.606 
00:20	53.1	53.1	53.1	94	51.4	0	1	338	0.01	29.606 
00:25	53.1	53.1	53.1	94	51.4	0	1	338	0.01	29.606 
00:30	52.9	52.9	52.9	94	51.2	0	1	338	0.01	29.606 
00:35	52.9	52.9	52.9	94	51.2	0	1	338	0.01	29.606 
00:40	52.8	52.8	52.8	94	51.1	0	2	338	0.01	29.606 
00:45	52.6	52.6	52.6	94	50.9	0	3	135	0.01	29.598 
00:50	52.5	52.5	52.5	95	51.1	0	4	68	0.01	29.598 
00:55	52.6	52.6	52.6	95	51.2	1	3	68	0.01	29.598 
01:00	52.5	52.5	52.5	95	51.1	0	3	68	0.01	29.602 
01:05	52.3	52.3	52.3	95	50.9	0	2	68	0.01	29.602 
01:10	52.2	52.2	52.2	95	50.8	0	1	68	0.01	29.602 
01:15	52.2	52.2	52.2	95	50.8	0	2	68	0.02	29.596 
01:20	52.2	52.2	52.2	95	50.8	0	3	112	0.01	29.596 
01:25	52.2	52.2	52.2	95	50.8	0	3	112	0.02	29.596 
01:30	52.0	52.0	52.0	95	50.6	1	4	112	0.02	29.603 
01:35	52.0	52.0	52.0	95	50.6	0	2	90	0.01	29.603 
01:40	51.9	51.9	51.9	95	50.5	0	2	90	0.00	29.603 
01:45	51.7	51.7	51.7	95	50.3	1	4	158	0.01	29.597 
01:50	51.7	51.7	51.7	95	50.3	0	1	158	0.00	29.597 
01:55	51.7	51.7	51.7	95	50.3	0	1	158	0.01	29.597 
02:00	51.7	51.7	51.7	95	50.3	0	2	158	0.00	29.592 
02:05	51.7	51.7	51.7	95	50.3	1	4	158	0.00	29.592 
02:10	51.6	51.6	51.6	95	50.2	1	6	112	0.00	29.592 
02:15	51.4	51.4	51.4	95	50.0	1	3	112	0.00	29.591 
02:20	51.3	51.3	51.3	95	49.9	0	1	68	0.00	29.591 
02:25	51.3	51.3	51.3	95	49.9	0	2	68	0.00	29.591 
02:30	51.1	51.1	51.1	95	49.7	1	7	112	0.00	29.583 
02:35	51.3	51.3	51.3	96	50.2	0	1	112	0.00	29.583 
02:40	51.1	51.1	51.1	95	49.7	0	2	112	0.00	29.583 
02:45	51.1	51.1	51.1	96	50.0	0	1	112	0.00	29.582 
02:50	51.1	51.1	51.1	95	49.7	0	1	112	0.00	29.582 
02:55	51.0	51.0	51.0	95	49.6	0	3	112	0.00	29.582 
03:00	50.8	50.8	50.8	96	49.7	0	3	68	0.00	29.579 
03:05	50.8	50.8	50.8	95	49.4	1	5	90	0.00	29.579 
03:10	50.8	50.8	50.8	95	49.4	0	3	90	0.00	29.579 
03:15	50.8	50.8	50.8	96	49.7	0	2	90	0.00	29.579 
03:20	51.0	51.0	51.0	96	49.9	0	1	90	0.00	29.579 
03:25	51.0	51.0	51.0	95	49.6	0	3	90	0.00	29.579 
03:30	51.0	51.0	51.0	95	49.6	0	1	90	0.00	29.578 
03:35	50.8	50.8	50.8	95	49.4	0	4	90	0.00	29.578 
03:40	50.8	50.8	50.8	95	49.4	0	2	90	0.00	29.578 
03:45	50.8	50.8	50.8	95	49.4	0	1	90	0.00	29.578 
03:50	50.8	50.8	50.8	95	49.4	0	3	90	0.00	29.578 
03:55	50.8	50.8	50.8	95	49.4	0	2	90	0.00	29.578 
04:00	50.8	50.8	50.8	95	49.4	0	2	90	0.00	29.579 
04:05	50.8	50.8	50.8	95	49.4	0	2	90	0.00	29.579 
04:10	50.8	50.8	50.8	95	49.4	0	1	90	0.00	29.579 
04:15	51.0	51.0	51.0	95	49.6	0	0	---	0.00	29.579 
04:20	50.8	50.8	50.8	95	49.4	0	3	90	0.00	29.579 
04:25	50.8	50.8	50.8	95	49.4	0	2	90	0.00	29.579 
04:30	50.8	50.8	50.8	95	49.4	0	1	90	0.00	29.581 
04:35	50.8	50.8	50.8	95	49.4	0	1	90	0.00	29.581 
04:40	50.8	50.8	50.8	95	49.4	0	2	90	0.00	29.581 
04:45	51.0	51.0	51.0	95	49.6	0	0	---	0.00	29.580 
04:50	51.0	51.0	51.0	95	49.6	0	2	90	0.00	29.580 
04:55	50.8	50.8	50.8	95	49.4	0	1	90	0.00	29.580 
05:00	50.8	50.8	50.8	95	49.4	0	2	90	0.00	29.574 
05:05	50.8	50.8	50.8	95	49.4	0	0	---	0.00	29.574 
05:10	50.8	50.8	50.8	95	49.4	0	2	90	0.00	29.574 
05:15	50.8	50.8	50.8	95	49.4	0	1	90	0.00	29.572 
05:20	50.7	50.7	50.7	95	49.3	0	1	90	0.00	29.572 
05:25	50.8	50.8	50.8	95	49.4	0	1	90	0.00	29.572 
05:30	50.8	50.8	50.8	95	49.4	0	0	---	0.00	29.573 
05:35	50.8	50.8	50.8	95	49.4	0	1	90	0.00	29.573 
05:40	50.8	50.8	50.8	95	49.4	0	1	90	0.00	29.573 
05:45	50.8	50.8	50.8	95	49.4	0	0	---	0.00	29.577 
05:50	50.8	50.8	50.8	95	49.4	0	2	90	0.00	29.577 
05:55	50.8	50.8	50.8	95	49.4	0	4	90	0.00	29.577 
06:00	50.8	50.8	50.8	95	49.4	0	1	90	0.00	29.577 
06:05	51.0	51.0	51.0	95	49.6	0	0	---	0.00	29.577 
06:10	51.0	51.0	51.0	95	49.6	0	0	---	0.00	29.577 
06:15	51.0	51.0	51.0	95	49.6	0	2	90	0.00	29.582 
06:20	51.0	51.0	51.0	95	49.6	0	1	90	0.00	29.582 
06:25	51.0	51.0	51.0	95	49.6	0	3	90	0.00	29.582 
06:30	51.0	51.0	51.0	95	49.6	0	3	90	0.00	29.582 
06:35	51.0	51.0	51.0	95	49.6	0	1	90	0.00	29.582 
06:40	51.0	51.0	51.0	95	49.6	0	1	90	0.00	29.582 
06:45	51.0	51.0	51.0	95	49.6	0	2	90	0.00	29.585 
06:50	51.1	51.1	51.1	95	49.7	0	0	---	0.00	29.585 
06:55	51.1	51.1	51.1	95	49.7	0	1	90	0.00	29.585 
07:00	51.1	51.1	51.1	95	49.7	0	1	90	0.00	29.590 
07:05	51.1	51.1	51.1	95	49.7	0	0	---	0.00	29.590 
07:10	51.1	51.1	51.1	95	49.7	0	0	---	0.00	29.590 
07:15	51.1	51.1	51.1	95	49.7	0	1	90	0.00	29.595 
07:20	51.3	51.3	51.3	95	49.9	0	1	90	0.00	29.595 
07:25	51.3	51.3	51.3	95	49.9	0	1	90	0.00	29.595 
07:30	51.3	51.3	51.3	96	50.2	0	0	---	0.00	29.599 
07:35	51.3	51.3	51.3	96	50.2	0	0	---	0.00	29.599 
07:40	51.3	51.3	51.3	95	49.9	0	0	---	0.00	29.599 
07:45	51.3	51.3	51.3	96	50.2	0	0	---	0.00	29.599 
07:50	51.4	51.4	51.4	96	50.3	0	1	90	0.00	29.599 
07:55	51.4	51.4	51.4	96	50.3	0	0	---	0.00	29.599 
08:00	51.4	51.4	51.4	96	50.3	0	1	90	0.00	29.601 
08:05	51.4	51.4	51.4	96	50.3	0	0	---	0.00	29.601 
08:10	51.6	51.6	51.6	96	50.5	0	0	---	0.00	29.601 
08:15	51.7	51.7	51.7	96	50.6	0	1	90	0.01	29.602 
08:20	51.7	51.7	51.7	96	50.6	0	1	90	0.00	29.602 
08:25	51.9	51.9	51.9	96	50.8	0	0	---	0.00	29.602 
08:30	51.9	51.9	51.9	96	50.8	0	0	---	0.01	29.604 
08:35	52.0	52.0	52.0	96	50.9	0	1	90	0.00	29.604 
08:40	52.0	52.0	52.0	96	50.9	0	0	---	0.01	29.604 
08:45	52.2	52.2	52.2	96	51.1	0	1	90	0.00	29.605 
08:50	52.2	52.2	52.2	96	51.1	0	0	---	0.01	29.605 
08:55	52.2	52.2	52.2	96	51.1	0	1	90	0.00	29.605 
09:00	52.3	52.3	52.3	96	51.2	0	0	---	0.01	29.611 
09:05	52.5	52.5	52.5	96	51.4	0	0	---	0.00	29.611 
09:10	52.5	52.5	52.5	96	51.4	0	1	90	0.00	29.611 
09:15	52.5	52.5	52.5	96	51.4	0	0	---	0.00	29.614 
09:20	52.6	52.6	52.6	96	51.5	0	3	90	0.00	29.614 
09:25	52.6	52.6	52.6	96	51.5	0	1	90	0.01	29.614 
09:30	52.8	52.8	52.8	96	51.7	0	1	90	0.00	29.618 
09:35	52.8	52.8	52.8	96	51.7	0	0	---	0.01	29.618 
09:40	52.9	52.9	52.9	96	51.8	0	1	90	0.00	29.618 
09:45	52.9	52.9	52.9	96	51.8	0	1	90	0.00	29.618 
09:50	53.1	53.1	53.1	96	52.0	0	2	90	0.00	29.618 
09:55	53.2	53.2	53.2	96	52.1	0	1	90	0.00	29.618 
10:00	53.3	53.3	53.3	96	52.2	0	2	90	0.00	29.619 
10:05	53.3	53.3	53.3	96	52.2	1	5	135	0.00	29.619 
10:10	53.3	53.3	53.3	96	52.2	1	3	158	0.01	29.619 
10:15	53.5	53.5	53.5	96	52.4	0	2	158	0.00	29.624 
10:20	53.6	53.6	53.6	96	52.5	0	5	158	0.00	29.624 
10:25	53.6	53.6	53.6	96	52.5	1	3	112	0.00	29.624 
10:30	53.8	53.8	53.8	96	52.7	1	3	112	0.00	29.628 
10:35	53.9	53.9	53.9	96	52.8	0	2	315	0.00	29.628 
10:40	53.9	53.9	53.9	96	52.8	1	4	90	0.00	29.628 
10:45	53.8	53.8	53.8	96	52.7	2	7	90	0.00	29.633 
10:50	53.8	53.8	53.8	96	52.7	1	5	90	0.00	29.633 
10:55	53.6	53.6	53.6	96	52.5	1	5	112	0.00	29.633 
11:00	53.6	53.6	53.6	96	52.5	2	5	90	0.00	29.635 
11:05	53.6	53.6	53.6	96	52.5	2	4	45	0.00	29.635 
11:10	53.6	53.6	53.6	96	52.5	1	4	90	0.00	29.635 
11:15	53.6	53.6	53.6	96	52.5	1	4	90	0.00	29.642 
11:20	53.6	53.6	53.6	96	52.5	1	5	90	0.00	29.642 
11:25	53.2	53.2	53.2	96	52.1	3	9	112	0.00	29.642 
11:30	53.1	53.1	53.1	96	52.0	2	6	112	0.00	29.648 
11:35	53.1	53.1	53.1	96	52.0	2	7	90	0.00	29.648 
11:40	53.1	53.1	53.1	96	52.0	1	6	135	0.00	29.648 
11:45	53.1	53.1	53.1	96	52.0	1	4	135	0.00	29.652 
11:50	52.9	52.9	52.9	96	51.8	2	9	112	0.01	29.652 
11:55	52.9	52.9	52.9	96	51.8	1	5	112	0.00	29.652 
12:00	52.8	52.8	52.8	95	51.4	1	7	45	0.00	29.654 
12:05	52.5	52.5	52.5	95	51.1	2	7	90	0.00	29.654 
12:10	52.3	52.3	52.3	95	50.9	2	5	90	0.00	29.654 
12:15	52.3	52.3	52.3	95	50.9	2	9	90	0.00	29.655 
12:20	52.3	52.3	52.3	95	50.9	2	7	112	0.00	29.655 
12:25	52.3	52.3	52.3	95	50.9	2	9	90	0.00	29.655 
12:30	52.3	52.3	52.3	95	50.9	2	5	90	0.00	29.665 
12:35	52.3	52.3	52.3	95	50.9	2	6	68	0.00	29.665 
12:40	52.0	52.0	52.0	94	50.3	3	6	90	0.00	29.665 
12:45	51.9	51.9	51.9	94	50.2	2	9	90	0.00	29.668 
12:50	52.0	52.0	52.0	94	50.3	1	7	112	0.00	29.668 
12:55	51.9	51.9	51.9	94	50.2	2	5	135	0.00	29.668 
13:00	51.7	51.7	51.7	94	50.0	1	6	112	0.00	29.672 
13:05	51.9	51.9	51.9	94	50.2	1	3	112	0.00	29.672 
13:10	51.9	51.9	51.9	93	49.9	1	4	90	0.00	29.672 
13:15	51.6	51.6	51.6	93	49.6	2	7	90	0.00	29.677 
13:20	51.4	51.4	51.4	92	49.2	2	5	112	0.00	29.677 
13:25	51.3	51.3	51.3	92	49.1	2	9	90	0.00	29.677 
13:30	51.3	51.3	51.3	92	49.1	2	7	90	0.00	29.683 
13:35	51.1	51.1	51.1	91	48.6	2	5	112	0.00	29.683 
13:40	51.1	51.1	51.1	92	48.9	1	10	112	0.00	29.683 
13:45	51.0	51.0	51.0	91	48.5	1	10	135	0.00	29.688 
13:50	50.7	50.7	50.7	91	48.2	3	10	112	0.00	29.688 
13:55	50.5	50.5	50.5	91	48.0	2	6	90	0.00	29.688 
14:00	50.5	50.5	50.5	92	48.3	2	6	90	0.00	29.692 
14:05	50.5	50.5	50.5	91	48.0	1	6	90	0.00	29.692 
14:10	50.1	50.1	50.1	91	47.6	2	7	22	0.00	29.692 
14:15	50.1	50.1	50.1	92	47.9	1	6	68	0.00	29.701 
14:20	49.9	49.9	49.9	91	47.4	1	6	112	0.00	29.701 
14:25	49.6	49.6	49.6	92	47.4	0	3	158	0.00	29.701 
14:30	49.5	49.5	49.5	92	47.3	1	6	90	0.00	29.706 
14:35	49.4	49.4	49.4	92	47.2	1	12	112	0.00	29.706 
14:40	49.2	49.2	49.2	92	47.0	1	9	45	0.00	29.706 
14:45	49.1	49.1	49.1	92	46.9	1	7	112	0.00	29.707 
14:50	49.1	49.1	49.1	92	46.9	1	2	68	0.00	29.707 
14:55	49.2	49.2	49.2	92	47.0	1	6	90	0.00	29.707 
15:00	48.9	48.9	48.9	92	46.7	1	5	0	0.00	29.709 
15:05	48.8	48.8	48.8	92	46.6	1	9	68	0.00	29.709 
15:10	48.8	48.8	48.8	92	46.6	1	8	90	0.00	29.709 
15:15	48.6	48.6	48.6	92	46.4	1	4	90	0.00	29.715 
15:20	48.6	48.6	48.6	92	46.4	0	2	68	0.00	29.715 
15:25	48.6	48.6	48.6	92	46.4	1	5	112	0.00	29.715 
15:30	48.5	48.5	48.5	92	46.3	2	11	135	0.00	29.720 
15:35	48.5	48.5	48.5	93	46.6	1	9	112	0.00	29.720 
15:40	48.8	48.8	48.8	93	46.9	0	2	112	0.00	29.720 
15:45	48.8	48.8	48.8	93	46.9	1	5	112	0.00	29.721 
15:50	48.9	48.9	48.9	93	47.0	0	3	135	0.00	29.721 
15:55	48.8	48.8	48.8	93	46.9	0	3	45	0.01	29.721 
16:00	48.8	48.8	48.8	93	46.9	0	2	68	0.00	29.725 
16:05	48.5	48.5	48.5	93	46.6	0	3	0	0.00	29.725 
16:10	48.5	48.5	48.5	93	46.6	0	3	0	0.00	29.725 
16:15	48.5	48.5	48.5	93	46.6	0	2	180	0.01	29.731 
16:20	48.5	48.5	48.5	94	46.9	1	4	90	0.00	29.731 
16:25	48.5	48.5	48.5	94	46.9	1	3	90	0.00	29.731 
16:30	48.5	48.5	48.5	94	46.9	1	4	68	0.00	29.737 
16:35	48.2	48.2	48.2	94	46.6	2	6	22	0.01	29.737 
16:40	48.0	48.0	48.0	94	46.4	1	5	135	0.00	29.737 
16:45	47.9	47.9	47.9	94	46.3	1	5	90	0.00	29.738 
16:50	48.0	48.0	48.0	94	46.4	1	6	135	0.00	29.738 
16:55	47.9	47.9	47.9	94	46.3	1	5	135	0.00	29.738 
17:00	47.7	47.7	47.7	94	46.1	1	3	158	0.00	29.744 
17:05	47.6	47.6	47.6	94	46.0	1	4	90	0.00	29.744 
17:10	47.3	47.3	47.3	93	45.4	1	5	135	0.00	29.744 
17:15	47.0	47.0	47.0	93	45.1	0	3	68	0.00	29.753 
17:20	46.8	46.8	46.8	94	45.2	0	2	45	0.00	29.753 
17:25	46.5	46.5	46.5	94	44.9	0	3	45	0.00	29.753 
17:30	46.4	46.4	46.4	94	44.8	1	4	90	0.00	29.759 
17:35	46.2	46.2	46.2	94	44.6	1	4	112	0.00	29.759 
17:40	46.1	46.1	46.1	94	44.5	1	7	112	0.00	29.759 
17:45	46.0	46.0	46.0	94	44.4	1	3	0	0.00	29.765 
17:50	45.8	45.8	45.8	94	44.2	0	3	270	0.00	29.765 
17:55	45.7	45.7	45.7	94	44.1	1	6	270	0.00	29.765 
18:00	45.5	45.5	45.5	94	43.9	1	7	112	0.00	29.772 
18:05	45.5	45.5	45.5	94	43.9	0	3	112	0.00	29.772 
18:10	45.7	45.7	45.7	94	44.1	1	4	112	0.00	29.772 
18:15	45.7	45.7	45.7	94	44.1	1	6	135	0.00	29.775 
18:20	45.5	45.5	45.5	94	43.9	1	3	112	0.00	29.775 
18:25	45.4	45.4	45.4	94	43.8	0	3	112	0.01	29.775 
18:30	45.4	45.4	45.4	94	43.8	0	5	112	0.00	29.782 
18:35	45.2	45.2	45.2	94	43.6	0	4	225	0.00	29.782 
18:40	45.4	45.4	45.4	94	43.8	0	2	225	0.00	29.782 
18:45	45.2	45.2	45.2	94	43.6	0	2	292	0.00	29.785 
18:50	45.2	45.2	45.2	95	43.9	0	2	158	0.00	29.785 
18:55	45.2	45.2	45.2	95	43.9	1	4	135	0.00	29.785 
19:00	45.2	45.2	45.2	95	43.9	0	2	135	0.00	29.788 
19:05	45.2	45.2	45.2	95	43.9	1	4	112	0.01	29.788 
19:10	45.2	45.2	45.2	95	43.9	0	2	135	0.00	29.788 
19:15	45.2	45.2	45.2	95	43.9	0	3	45	0.00	29.792 
19:20	45.2	45.2	45.2	95	43.9	0	2	45	0.00	29.792 
19:25	45.4	45.4	45.4	95	44.1	0	6	158	0.00	29.792 
19:30	45.2	45.2	45.2	95	43.9	0	3	90	0.00	29.797 
19:35	45.2	45.2	45.2	95	43.9	1	3	90	0.00	29.797 
19:40	45.1	45.1	45.1	95	43.8	1	4	90	0.00	29.797 
19:45	45.1	45.1	45.1	95	43.8	0	4	135	0.00	29.803 
19:50	45.1	45.1	45.1	95	43.8	1	5	135	0.01	29.803 
19:55	44.9	44.9	44.9	95	43.6	0	2	135	0.00	29.803 
20:00	44.9	44.9	44.9	95	43.6	1	5	112	0.00	29.809 
20:05	44.8	44.8	44.8	95	43.5	0	4	112	0.00	29.809 
20:10	44.8	44.8	44.8	95	43.5	1	10	112	0.00	29.809 
20:15	44.8	44.8	44.8	95	43.5	0	2	45	0.00	29.815 
20:20	44.8	44.8	44.8	95	43.5	0	1	45	0.00	29.815 
20:25	44.9	44.9	44.9	95	43.6	0	2	90	0.00	29.815 
20:30	44.8	44.8	44.8	95	43.5	0	2	90	0.00	29.818 
20:35	44.8	44.8	44.8	95	43.5	0	1	90	0.00	29.818 
20:40	44.8	44.8	44.8	95	43.5	0	1	90	0.00	29.818 
20:45	44.6	44.6	44.6	94	43.0	1	6	135	0.00	29.821 
20:50	44.5	44.5	44.5	94	42.9	1	4	135	0.00	29.821 
20:55	44.5	44.5	44.5	94	42.9	1	3	135	0.00	29.821 
21:00	44.3	44.3	44.3	94	42.7	1	3	135	0.00	29.827 
21:05	44.3	44.3	44.3	94	42.7	1	3	135	0.01	29.827 
21:10	44.2	44.2	44.2	94	42.6	0	2	0	0.00	29.827 
21:15	44.2	44.2	44.2	94	42.6	1	5	112	0.00	29.835 
21:20	44.1	44.1	44.1	94	42.5	0	4	135	0.00	29.835 
21:25	44.1	44.1	44.1	94	42.5	1	4	68	0.00	29.835 
21:30	43.9	43.9	43.9	94	42.3	1	4	112	0.00	29.836 
21:35	43.8	43.8	43.8	94	42.2	1	4	0	0.00	29.836 
21:40	43.5	43.5	43.5	93	41.6	1	5	202	0.00	29.836 
21:45	43.3	43.3	43.3	93	41.4	1	6	22	0.00	29.839 
21:50	43.2	43.2	43.2	92	41.0	1	5	90	0.00	29.839 
21:55	43.2	43.2	43.2	92	41.0	0	2	90	0.00	29.839 
22:00	43.2	43.2	43.2	92	41.0	0	3	158	0.00	29.846 
22:05	43.3	43.3	43.3	92	41.1	0	4	158	0.00	29.846 
22:10	43.3	43.3	43.3	92	41.1	0	1	158	0.00	29.846 
22:15	43.3	43.3	43.3	92	41.1	0	1	158	0.00	29.848 
22:20	43.2	43.2	43.2	92	41.0	0	3	112	0.00	29.848 
22:25	43.2	43.2	43.2	92	41.0	1	5	135	0.00	29.848 
22:30	43.1	43.1	43.1	92	40.9	0	3	135	0.00	29.851 
22:35	43.1	43.1	43.1	92	40.9	0	4	135	0.00	29.851 
22:40	42.9	42.9	42.9	92	40.7	0	3	112	0.01	29.851 
22:45	42.8	42.8	42.8	92	40.6	0	3	248	0.00	29.854 
22:50	42.6	42.6	42.6	92	40.4	0	4	90	0.00	29.854 
22:55	42.6	42.6	42.6	92	40.4	0	3	90	0.00	29.854 
23:00	42.3	42.3	42.3	92	40.1	0	4	135	0.00	29.855 
23:05	42.2	42.2	42.2	92	40.0	0	2	90	0.00	29.855 
23:10	42.2	42.2	42.2	91	39.8	0	5	112	0.00	29.855 
23:15	42.2	42.2	42.2	91	39.8	0	2	0	0.00	29.856 
23:20	42.2	42.2	42.2	91	39.8	0	3	68	0.00	29.856 
23:25	42.1	42.1	42.1	91	39.7	0	3	68	0.00	29.856 
23:30	42.1	42.1	42.1	91	39.7	0	4	68	0.00	29.857 
23:35	42.1	42.1	42.1	91	39.7	0	2	158	0.00	29.857 
23:40	41.9	41.9	41.9	91	39.5	1	4	292	0.00	29.857 
23:45	41.8	41.8	41.8	91	39.4	0	3	292	0.00	29.860 
23:50	41.8	41.8	41.8	90	39.1	0	1	135	0.00	29.860 
23:55	41.8	41.8	41.8	90	39.1	0	2	135	0.00	29.860 

CoCoRaHS
IN-AL-39
A2 Web Hosting
Creative Commons License
GoDaddy
search engine by freefind advanced

loaded 2018-11-17 14:26:58 • last modified 2010-11-18 10:43:29
Privacy PolicyDisclaimer
• wx.awcolley.com is powered by PmWiki v.2002016 •
• all content (unless otherwise noted) © 2018 A W Colley